< Cyclone 200001 2000 Season Cyclone 200003 >
Cyclone 200002 (JOHN)
General InformationTrack Information on Google MapsDetailed Wind InformationList of All Images || ResourceGoogle EarthGE AnimationAtom FeedGeoJSON
Detalied Best Track (Time Zone = UTC)
Year Month Day Hour Lat. Long. Pressure (hPa) Wind (kt) Class Image Chart
1999 12 9 07 -10.4 122.5 1003 23 2 Image --
1999 12 9 10 -10.4 122.1 1003 23 2 Image --
1999 12 9 16 -10.8 121.2 1003 23 2 Image --
1999 12 9 19 -11.1 121.0 1002 23 2 Image --
1999 12 9 22 -11.4 120.9 1002 23 2 Image --
1999 12 10 04 -11.8 120.7 1002 23 2 Image --
1999 12 10 07 -12.4 120.6 1000 27 2 Image --
1999 12 10 10 -12.5 120.6 1000 27 2 Image --
1999 12 10 16 -12.9 120.5 1000 27 2 Image --
1999 12 10 22 -13.2 120.1 998 29 2 Image --
1999 12 11 04 -13.4 120.0 998 29 2 Image --
1999 12 11 07 -13.4 120.0 998 29 2 Image --
1999 12 11 10 -13.5 119.9 998 29 2 Image --
1999 12 11 13 -13.5 119.9 995 35 3 Image --
1999 12 11 16 -13.6 119.8 995 35 3 Image --
1999 12 11 19 -13.7 119.7 985 49 4 Image --
1999 12 11 22 -13.8 119.6 985 49 4 Image --
1999 12 12 01 -13.9 119.4 980 54 4 Image --
1999 12 12 04 -14.1 119.4 975 60 4 Image --
1999 12 12 07 -14.4 119.4 975 60 4 Image --
1999 12 12 10 -14.7 119.4 975 60 4 Image --
1999 12 12 13 -15.0 119.4 975 60 4 Image --
1999 12 12 16 -15.2 119.3 975 60 4 Image --
1999 12 12 19 -15.5 119.2 975 60 4 Image --
1999 12 12 22 -15.8 119.2 970 64 5 Image --
1999 12 13 01 -16.2 118.9 965 70 5 Image --
1999 12 13 04 -16.5 118.6 965 70 5 Image --
1999 12 13 07 -16.7 118.6 965 70 5 Image --
1999 12 13 10 -17.0 118.5 965 70 5 Image --
1999 12 13 13 -17.2 118.3 960 76 5 Image --
1999 12 13 16 -17.4 118.1 950 84 5 Image --
1999 12 13 19 -17.6 118.0 940 93 5 Image --
1999 12 13 22 -17.8 117.8 930 101 5 Image --
1999 12 14 01 -18.1 117.6 915 111 5 Image --
1999 12 14 04 -18.4 117.5 915 111 5 Image --
1999 12 14 07 -18.8 117.4 915 111 5 Image --
1999 12 14 10 -19.1 117.3 915 111 5 Image --
1999 12 14 13 -19.4 117.3 915 111 5 Image --
1999 12 14 16 -19.7 117.3 915 111 5 Image --
1999 12 14 19 -20.0 117.4 930 101 5 Image --
1999 12 14 22 -20.4 117.5 940 93 5 Image --
1999 12 15 01 -20.7 117.6 950 84 5 Image --
1999 12 15 04 -21.1 117.8 960 76 5 Image --
1999 12 15 07 -21.5 118.0 970 64 5 Image --
1999 12 15 10 -21.8 118.4 970 64 5 Image --
1999 12 15 13 -22.0 118.8 975 60 4 Image --
1999 12 15 16 -22.3 119.2 980 54 4 Image --
1999 12 15 19 -22.6 119.6 985 49 4 Image --
1999 12 15 22 -23.0 120.2 990 41 3 Image --
1999 12 16 01 -23.3 120.6 995 35 3 Image --
< Cyclone 200001 2000 Season Cyclone 200003 >

Help